Pagrindinis puslapis
METAR-TAF:

METAR-TAF

Oro uostai :

Bandžarmasinas, Indonezija

platuma: 03-26-32S, ilguma: 114-45-45E, Aukštis: 20 m

Dabartinis oras

Ataskaita buvo paskelbta 47 minutes, ne 04:00 UTC
Vėjas 6 kt iš Šiaurės Rytų
Temperatūra 31°C
Drėgmė 66%
Slėgis 1010 hPa
Matomumas 10 km arba daugiau
Mažai debesys ne aukštis 1800 ft

METAR: WAOO 020400Z 04006KT 9999 FEW018 31/24 Q1010 NOSIG

Laikas: 11:47 (04:47 UTC)

Prognozė

Ataskaita buvo paskelbta 5 valandos ir 47 minutes, ne 23:00 UTC
Prognozė galioja nuo 02 metu 00 UTC su 02 metu 24 UTC
Vėjas 6 kt iš Rytų
Matomumas 10 km arba daugiau
Išsisklaidę debesys ne aukštis 1700 ft
Laikinai
nuo 02 metu 05 UTC su 02 metu 09 UTC
Matomumas: 3000 m
lietus

TAF: WAOO 012300Z 0200/0224 09006KT 9999 SCT017 TEMPO 0205/0209 3000 RA

Orai ataskaitas ir orų prognozės (METAR, TAF).

turimą stotys yra geltonos ir raudonos taškus žemėlapyje.

Perkelti pele per norėdami pamatyti stoties vardą.

Tada spustelėkite, norėdami matyti oro stebėjimo ir prognozės.

Norėdami pakeisti žemėlapį: spustelėkite ant žalios mygtukų su juodo kryžiaus žemyn,; žalią mygtuką su brūkšneliu, jei norite nutolinti; arba žalių rodyklių gretimoms žemėlapius.


METAR-TAF: